createdAt,value
2022-10-03T00:02:00.635Z,17.02
2022-10-03T00:04:01.302Z,14.43
2022-10-03T00:06:08.781Z,14.63
2022-10-03T00:08:08.160Z,14.20
2022-10-03T00:10:06.878Z,11.27
2022-10-03T00:12:08.401Z,17.92
2022-10-03T00:14:01.932Z,16.67
2022-10-03T00:16:02.018Z,17.33
2022-10-03T00:18:01.797Z,18.10
2022-10-03T00:20:00.230Z,12.15
2022-10-03T00:22:03.002Z,12.40
2022-10-03T00:24:00.831Z,15.63
2022-10-03T00:25:58.513Z,16.42
2022-10-03T00:27:54.246Z,13.43
2022-10-03T00:30:01.471Z,19.85
2022-10-03T00:32:00.152Z,13.07
2022-10-03T00:33:59.697Z,17.10
2022-10-03T00:36:07.044Z,11.98
2022-10-03T00:38:08.551Z,15.35
2022-10-03T00:40:23.004Z,20.30
2022-10-03T00:42:50.034Z,17.75
2022-10-03T00:45:02.250Z,18.42
2022-10-03T00:47:22.007Z,22.55
2022-10-03T00:49:52.746Z,13.10
2022-10-03T00:51:54.792Z,12.68
2022-10-03T00:55:58.440Z,16.55
2022-10-03T00:58:15.786Z,12.52
2022-10-03T01:00:16.366Z,14.85
2022-10-03T01:02:37.186Z,13.32
2022-10-03T01:04:50.519Z,10.77
2022-10-03T01:06:46.399Z,15.10
2022-10-03T01:08:49.577Z,13.10
2022-10-03T01:10:45.836Z,13.18
2022-10-03T01:12:49.466Z,13.73
2022-10-03T01:14:53.263Z,9.73
2022-10-03T01:16:54.041Z,17.20
2022-10-03T01:18:52.862Z,16.08
2022-10-03T01:20:50.590Z,19.15
2022-10-03T01:23:14.181Z,15.60
2022-10-03T01:25:11.678Z,16.25
2022-10-03T01:27:04.889Z,10.75
2022-10-03T01:28:59.510Z,18.77
2022-10-03T01:30:51.821Z,13.10
2022-10-03T01:32:47.947Z,6.80
2022-10-03T01:34:42.632Z,16.63
2022-10-03T01:36:39.030Z,16.10
2022-10-03T01:38:36.489Z,14.55
2022-10-03T01:40:30.078Z,10.88
2022-10-03T01:42:31.912Z,18.13
2022-10-03T01:44:28.156Z,18.30
2022-10-03T01:46:22.363Z,11.73
2022-10-03T01:48:20.090Z,14.07
2022-10-03T01:50:16.220Z,17.05
2022-10-03T01:52:10.657Z,11.07
2022-10-03T01:54:16.857Z,18.98
2022-10-03T01:56:12.066Z,14.82
2022-10-03T01:58:07.692Z,14.10
2022-10-03T02:00:04.422Z,19.80
2022-10-03T02:02:01.917Z,20.08
2022-10-03T02:03:55.894Z,14.85
2022-10-03T02:05:50.232Z,13.43
2022-10-03T02:07:45.979Z,8.40
2022-10-03T02:09:41.316Z,14.50
2022-10-03T02:11:38.258Z,9.35
2022-10-03T02:13:37.522Z,12.77
2022-10-03T02:15:34.955Z,13.45
2022-10-03T02:17:35.317Z,15.27
2022-10-03T02:19:28.490Z,16.17
2022-10-03T02:21:21.031Z,12.30
2022-10-03T02:23:24.003Z,14.25
2022-10-03T02:25:36.915Z,18.02
2022-10-03T02:27:46.238Z,13.60
2022-10-03T02:30:09.867Z,15.30
2022-10-03T02:32:40.997Z,17.20
2022-10-03T02:34:55.176Z,9.35
2022-10-03T02:37:15.734Z,18.80
2022-10-03T02:39:41.902Z,12.43
2022-10-03T02:41:51.898Z,11.95
2022-10-03T02:44:11.014Z,15.77
2022-10-03T02:46:23.757Z,15.00
2022-10-03T02:48:48.025Z,8.85
2022-10-03T02:51:10.177Z,13.45
2022-10-03T02:53:30.384Z,9.20
2022-10-03T02:55:52.563Z,13.63
2022-10-03T02:58:23.472Z,17.17
2022-10-03T03:00:17.733Z,11.07
2022-10-03T03:02:24.450Z,12.80
2022-10-03T03:04:35.837Z,15.27
2022-10-03T03:06:52.615Z,12.38
2022-10-03T03:09:26.061Z,13.13
2022-10-03T03:11:59.170Z,16.80
2022-10-03T03:14:20.166Z,9.73
2022-10-03T03:16:34.895Z,11.88
2022-10-03T03:18:32.726Z,16.65
2022-10-03T03:20:36.238Z,13.48
2022-10-03T03:22:34.911Z,10.00
2022-10-03T03:24:39.820Z,21.25
2022-10-03T03:26:49.965Z,16.27
2022-10-03T03:28:46.404Z,15.35
2022-10-03T03:30:40.762Z,18.00
2022-10-03T03:32:39.823Z,14.30
2022-10-03T03:34:35.505Z,15.65
2022-10-03T03:36:33.862Z,12.65
2022-10-03T03:38:31.972Z,12.25
2022-10-03T03:40:35.417Z,12.70
2022-10-03T03:42:37.335Z,15.05
2022-10-03T03:44:46.885Z,14.48
2022-10-03T03:46:46.033Z,9.95
2022-10-03T03:48:50.702Z,11.88
2022-10-03T03:50:54.415Z,13.80
2022-10-03T03:53:11.089Z,14.15
2022-10-03T03:55:35.226Z,15.68
2022-10-03T03:57:59.515Z,14.20
2022-10-03T04:00:02.238Z,20.42
2022-10-03T04:03:55.995Z,12.35
2022-10-03T04:06:10.495Z,16.05
2022-10-03T04:08:24.490Z,13.25
2022-10-03T04:10:27.481Z,11.70
2022-10-03T04:12:27.055Z,19.38
2022-10-03T04:14:35.499Z,12.93
2022-10-03T04:16:50.508Z,18.65
2022-10-03T04:18:54.873Z,11.48
2022-10-03T04:20:56.741Z,10.57
2022-10-03T04:22:59.776Z,15.63
2022-10-03T04:25:15.647Z,13.25
2022-10-03T04:27:21.080Z,21.40
2022-10-03T04:29:42.628Z,14.73
2022-10-03T04:31:40.861Z,17.08
2022-10-03T04:33:43.603Z,14.07
2022-10-03T04:36:07.426Z,18.80
2022-10-03T04:38:06.433Z,13.07
2022-10-03T04:40:08.508Z,14.50
2022-10-03T04:42:08.118Z,17.27
2022-10-03T04:44:03.794Z,13.73
2022-10-03T04:46:01.405Z,11.95
2022-10-03T04:47:53.457Z,15.23
2022-10-03T04:49:45.927Z,15.75
2022-10-03T04:51:45.642Z,11.50
2022-10-03T04:53:44.416Z,12.55
2022-10-03T04:55:41.609Z,12.73
2022-10-03T04:57:37.961Z,15.13
2022-10-03T04:59:47.003Z,12.30
2022-10-03T05:01:43.471Z,16.27
2022-10-03T05:03:42.364Z,13.40
2022-10-03T05:05:50.361Z,12.25
2022-10-03T05:07:47.723Z,11.60
2022-10-03T05:09:44.553Z,14.40
2022-10-03T05:11:48.281Z,14.48
2022-10-03T05:13:44.917Z,12.23
2022-10-03T05:15:42.204Z,12.57
2022-10-03T05:17:44.772Z,14.68
2022-10-03T05:21:39.935Z,13.40
2022-10-03T05:23:39.208Z,16.08
2022-10-03T05:25:38.884Z,11.63
2022-10-03T05:27:36.966Z,19.15
2022-10-03T05:29:34.713Z,13.30
2022-10-03T05:31:35.258Z,13.20
2022-10-03T05:33:34.004Z,12.65
2022-10-03T05:35:29.452Z,12.95
2022-10-03T05:37:33.105Z,13.18
2022-10-03T05:39:27.228Z,13.73
2022-10-03T05:41:26.144Z,24.50
2022-10-03T05:43:31.559Z,13.18
2022-10-03T05:45:28.209Z,12.80
2022-10-03T05:47:26.796Z,16.90
2022-10-03T05:49:47.509Z,9.13
2022-10-03T05:51:51.962Z,12.70
2022-10-03T05:54:30.929Z,14.15
2022-10-03T05:56:29.008Z,13.50
2022-10-03T05:58:38.904Z,19.40
2022-10-03T06:00:38.504Z,17.95
2022-10-03T06:02:51.973Z,17.95
2022-10-03T06:04:54.850Z,20.25
2022-10-03T06:06:54.269Z,13.15
2022-10-03T06:09:07.214Z,11.52
2022-10-03T06:11:05.010Z,14.13
2022-10-03T06:13:06.910Z,11.10
2022-10-03T06:15:14.394Z,15.80
2022-10-03T06:17:26.256Z,12.90
2022-10-03T06:19:29.857Z,10.48
2022-10-03T06:21:43.286Z,12.73
2022-10-03T06:23:52.506Z,12.90
2022-10-03T06:25:56.265Z,16.35
2022-10-03T06:28:24.529Z,11.80
2022-10-03T06:30:23.633Z,13.73
2022-10-03T06:32:37.709Z,11.77
2022-10-03T06:34:45.173Z,12.32
2022-10-03T06:36:50.177Z,17.77
2022-10-03T06:39:07.750Z,17.35
2022-10-03T06:41:30.676Z,15.93
2022-10-03T06:43:40.460Z,11.57
2022-10-03T06:46:06.195Z,20.85
2022-10-03T06:48:25.677Z,17.13
2022-10-03T06:50:32.972Z,18.23
2022-10-03T06:52:45.540Z,12.57
2022-10-03T06:55:01.046Z,16.08
2022-10-03T06:57:21.162Z,18.88
2022-10-03T06:59:43.063Z,17.60
2022-10-03T07:02:10.731Z,19.77
2022-10-03T07:04:13.576Z,16.00
2022-10-03T07:06:13.569Z,16.00
2022-10-03T07:08:25.828Z,16.10
2022-10-03T07:10:25.100Z,19.58
2022-10-03T07:12:44.884Z,18.90
2022-10-03T07:14:58.475Z,22.63
2022-10-03T07:17:11.963Z,20.45
2022-10-03T07:19:14.406Z,17.02
2022-10-03T07:21:29.257Z,18.88
2022-10-03T07:23:49.048Z,17.88
2022-10-03T07:26:24.222Z,16.20
2022-10-03T07:28:34.992Z,19.05
2022-10-03T07:30:26.667Z,16.90
2022-10-03T07:32:34.215Z,17.20
2022-10-03T07:35:05.847Z,16.38
2022-10-03T07:37:15.495Z,21.15
2022-10-03T07:39:40.841Z,22.05
2022-10-03T07:42:00.415Z,15.73
2022-10-03T07:44:29.801Z,15.70
2022-10-03T07:46:52.802Z,19.67
2022-10-03T07:49:05.241Z,17.48
2022-10-03T07:51:10.842Z,25.52
2022-10-03T07:53:16.080Z,23.38
2022-10-03T07:55:26.016Z,21.88
2022-10-03T07:57:27.745Z,24.75
2022-10-03T07:59:47.327Z,27.23
2022-10-03T08:01:48.617Z,22.55
2022-10-03T08:04:10.500Z,18.48
2022-10-03T08:06:19.677Z,22.33
2022-10-03T08:08:46.860Z,19.60
2022-10-03T08:11:18.185Z,28.98
2022-10-03T08:13:26.793Z,17.52
2022-10-03T08:15:23.205Z,19.38
2022-10-03T08:17:39.788Z,17.42
2022-10-03T08:19:58.850Z,16.45
2022-10-03T08:21:56.764Z,20.52
2022-10-03T08:24:10.053Z,15.00
2022-10-03T08:26:11.651Z,18.92
2022-10-03T08:28:30.942Z,30.60
2022-10-03T08:30:22.983Z,25.98
2022-10-03T08:32:48.975Z,21.60
2022-10-03T08:35:05.822Z,28.25
2022-10-03T08:37:29.622Z,20.33
2022-10-03T08:39:46.601Z,16.05
2022-10-03T08:42:12.112Z,19.83
2022-10-03T08:44:32.151Z,36.78
2022-10-03T08:46:45.987Z,23.42
2022-10-03T08:49:11.170Z,19.85
2022-10-03T08:51:16.141Z,25.85
2022-10-03T08:53:41.109Z,21.90
2022-10-03T08:55:42.060Z,17.20
2022-10-03T08:57:46.718Z,17.23
2022-10-03T08:59:55.860Z,23.63
2022-10-03T09:02:20.346Z,18.45
2022-10-03T09:04:39.393Z,18.25
2022-10-03T09:07:17.624Z,21.30
2022-10-03T09:09:46.557Z,21.73
2022-10-03T09:12:15.939Z,17.10
2022-10-03T09:14:30.149Z,19.90
2022-10-03T09:16:40.933Z,21.92
2022-10-03T09:18:43.522Z,18.70
2022-10-03T09:22:59.085Z,19.83
2022-10-03T09:25:17.168Z,17.27
2022-10-03T09:27:31.482Z,19.92
2022-10-03T09:29:40.757Z,26.58
2022-10-03T09:31:54.523Z,17.40
2022-10-03T09:34:08.001Z,18.33
2022-10-03T09:36:15.966Z,20.80
2022-10-03T09:38:43.666Z,18.52
2022-10-03T09:41:11.485Z,19.80
2022-10-03T09:43:35.365Z,19.70
2022-10-03T09:46:08.684Z,21.40
2022-10-03T09:48:25.563Z,21.50
2022-10-03T09:50:51.512Z,18.92
2022-10-03T09:52:58.555Z,15.13
2022-10-03T09:55:17.316Z,24.35
2022-10-03T09:57:43.941Z,25.48
2022-10-03T10:00:01.981Z,23.50
2022-10-03T10:01:59.624Z,20.73
2022-10-03T10:04:13.024Z,19.38
2022-10-03T10:06:30.784Z,30.77
2022-10-03T10:08:42.833Z,25.73
2022-10-03T10:11:12.303Z,24.50
2022-10-03T10:13:22.732Z,26.17
2022-10-03T10:15:45.891Z,19.17
2022-10-03T10:18:13.917Z,24.10
2022-10-03T10:20:10.938Z,27.58
2022-10-03T10:22:30.720Z,26.70
2022-10-03T10:25:03.943Z,23.70
2022-10-03T10:27:24.521Z,26.17
2022-10-03T10:29:52.432Z,34.25
2022-10-03T10:32:17.867Z,24.02
2022-10-03T10:34:49.119Z,20.25
2022-10-03T10:37:20.508Z,24.23
2022-10-03T10:39:42.383Z,20.10
2022-10-03T10:42:04.737Z,14.77
2022-10-03T10:44:31.627Z,24.77
2022-10-03T10:46:58.103Z,24.90
2022-10-03T10:49:42.274Z,18.73
2022-10-03T10:52:09.626Z,19.45
2022-10-03T10:54:32.045Z,18.02
2022-10-03T10:56:54.293Z,17.77
2022-10-03T10:59:09.650Z,18.15
2022-10-03T11:01:41.711Z,20.05
2022-10-03T11:04:26.067Z,19.10
2022-10-03T11:06:59.392Z,18.90
2022-10-03T11:10:59.386Z,23.02
2022-10-03T11:13:23.128Z,15.80
2022-10-03T11:16:05.529Z,20.42
2022-10-03T11:18:58.275Z,20.23
2022-10-03T11:21:17.590Z,20.63
2022-10-03T11:23:44.048Z,23.70
2022-10-03T11:26:20.034Z,15.05
2022-10-03T11:28:54.793Z,19.25
2022-10-03T11:31:08.306Z,20.95
2022-10-03T11:33:41.992Z,15.60
2022-10-03T11:36:12.227Z,18.98
2022-10-03T11:38:10.678Z,27.02
2022-10-03T11:40:26.457Z,20.98
2022-10-03T11:42:29.623Z,23.58
2022-10-03T11:44:25.685Z,22.98
2022-10-03T11:46:22.933Z,21.77
2022-10-03T11:48:31.457Z,20.23
2022-10-03T11:50:34.219Z,21.10
2022-10-03T11:52:30.964Z,20.05
2022-10-03T11:54:31.457Z,23.55
2022-10-03T11:56:33.887Z,33.72
2022-10-03T11:58:48.039Z,17.10
2022-10-03T12:00:41.877Z,27.42
2022-10-03T12:02:54.307Z,31.85
2022-10-03T12:07:01.055Z,17.90
2022-10-03T12:09:02.269Z,13.65
2022-10-03T12:11:02.357Z,26.83
2022-10-03T12:12:54.769Z,26.92
2022-10-03T12:14:47.837Z,18.00
2022-10-03T12:16:56.126Z,18.55
2022-10-03T12:18:54.005Z,18.92
2022-10-03T12:21:01.727Z,19.20
2022-10-03T12:22:55.920Z,18.25
2022-10-03T12:24:47.513Z,15.68
2022-10-03T12:26:47.979Z,14.80
2022-10-03T12:28:40.256Z,19.15
2022-10-03T12:30:37.724Z,17.10
2022-10-03T12:32:36.961Z,21.88
2022-10-03T12:34:37.433Z,17.88
2022-10-03T12:36:30.304Z,16.48
2022-10-03T12:38:32.493Z,20.55
2022-10-03T12:40:25.873Z,20.85
2022-10-03T12:42:25.336Z,18.80
2022-10-03T12:44:24.057Z,25.65
2022-10-03T12:46:17.143Z,21.02
2022-10-03T12:48:26.520Z,23.00
2022-10-03T12:50:30.494Z,22.52
2022-10-03T12:52:24.210Z,19.17
2022-10-03T12:54:29.389Z,17.00
2022-10-03T12:56:28.461Z,17.23
2022-10-03T12:58:25.037Z,19.10
2022-10-03T13:00:20.069Z,16.35
2022-10-03T13:02:24.014Z,17.90
2022-10-03T13:04:23.361Z,22.98
2022-10-03T13:07:01.676Z,12.95
2022-10-03T13:08:58.281Z,23.38
2022-10-03T13:10:50.145Z,19.83
2022-10-03T13:12:44.756Z,22.77
2022-10-03T13:15:08.043Z,19.80
2022-10-03T13:18:56.647Z,24.60
2022-10-03T13:20:55.927Z,20.85
2022-10-03T13:22:53.044Z,23.40
2022-10-03T13:24:48.993Z,25.20
2022-10-03T13:26:50.072Z,17.75
2022-10-03T13:28:55.058Z,19.38
2022-10-03T13:30:49.618Z,19.08
2022-10-03T13:32:42.599Z,17.98
2022-10-03T13:34:39.673Z,20.83
2022-10-03T13:36:38.339Z,20.95
2022-10-03T13:38:53.289Z,17.42
2022-10-03T13:40:44.860Z,19.95
2022-10-03T13:42:39.898Z,24.30
2022-10-03T13:44:36.492Z,20.98
2022-10-03T13:46:31.899Z,20.45
2022-10-03T13:48:24.124Z,19.10
2022-10-03T13:50:17.561Z,21.50
2022-10-03T13:52:18.662Z,20.40
2022-10-03T13:54:14.312Z,20.85
2022-10-03T13:56:09.145Z,23.45
2022-10-03T13:58:23.593Z,24.95
2022-10-03T14:00:15.801Z,26.95
2022-10-03T14:02:18.537Z,21.85
2022-10-03T14:04:27.333Z,17.70
2022-10-03T14:06:23.560Z,17.08
2022-10-03T14:08:26.401Z,24.08
2022-10-03T14:10:30.314Z,14.77
2022-10-03T14:12:43.880Z,15.02
2022-10-03T14:14:50.303Z,21.88
2022-10-03T14:16:43.704Z,19.23
2022-10-03T14:18:42.518Z,23.85
2022-10-03T14:20:38.460Z,18.38
2022-10-03T14:22:40.978Z,20.98
2022-10-03T14:24:40.112Z,14.05
2022-10-03T14:26:35.330Z,16.45
2022-10-03T14:28:29.152Z,18.05
2022-10-03T14:30:20.848Z,21.67
2022-10-03T14:32:42.453Z,18.13
2022-10-03T14:34:41.163Z,12.48
2022-10-03T14:36:38.388Z,16.58
2022-10-03T14:38:44.274Z,19.30
2022-10-03T14:40:40.941Z,17.40
2022-10-03T14:43:02.281Z,16.58
2022-10-03T14:44:55.528Z,18.25
2022-10-03T14:46:50.593Z,17.27
2022-10-03T14:48:45.078Z,19.23
2022-10-03T14:50:39.630Z,18.30
2022-10-03T14:52:34.321Z,14.50
2022-10-03T14:54:26.502Z,19.55
2022-10-03T14:58:16.638Z,19.17
2022-10-03T15:00:08.064Z,18.20
2022-10-03T15:01:59.178Z,16.33
2022-10-03T15:03:58.818Z,18.48
2022-10-03T15:05:59.415Z,23.17
2022-10-03T15:07:50.102Z,17.65
2022-10-03T15:09:45.693Z,18.20
2022-10-03T15:11:44.801Z,21.08
2022-10-03T15:13:38.693Z,16.33
2022-10-03T15:15:31.035Z,19.90
2022-10-03T15:17:22.961Z,16.42
2022-10-03T15:19:17.706Z,12.18
2022-10-03T15:21:14.305Z,14.48
2022-10-03T15:23:06.716Z,16.88
2022-10-03T15:25:01.541Z,18.92
2022-10-03T15:26:57.490Z,17.58
2022-10-03T15:28:50.383Z,18.42
2022-10-03T15:30:41.952Z,20.13
2022-10-03T15:32:35.847Z,15.13
2022-10-03T15:34:30.539Z,18.33
2022-10-03T15:36:23.796Z,13.77
2022-10-03T15:38:16.130Z,12.32
2022-10-03T15:40:09.867Z,14.82
2022-10-03T15:42:05.385Z,17.42
2022-10-03T15:43:58.627Z,15.57
2022-10-03T15:45:49.157Z,16.60
2022-10-03T15:47:44.098Z,12.05
2022-10-03T15:49:37.292Z,17.67
2022-10-03T15:51:29.808Z,15.25
2022-10-03T15:53:38.155Z,17.42
2022-10-03T15:55:33.719Z,21.00
2022-10-03T15:57:28.931Z,15.85
2022-10-03T15:59:22.050Z,14.88
2022-10-03T16:01:16.841Z,15.15
2022-10-03T16:03:13.387Z,13.73
2022-10-03T16:05:06.677Z,16.08
2022-10-03T16:07:01.047Z,17.75
2022-10-03T16:08:59.305Z,16.50
2022-10-03T16:10:59.580Z,17.30
2022-10-03T16:13:16.297Z,19.98
2022-10-03T16:15:17.405Z,13.20
2022-10-03T16:17:14.294Z,17.20
2022-10-03T16:19:27.257Z,21.05
2022-10-03T16:21:28.311Z,18.63
2022-10-03T16:23:20.671Z,18.27
2022-10-03T16:25:16.190Z,15.25
2022-10-03T16:27:11.298Z,17.52
2022-10-03T16:29:08.170Z,13.52
2022-10-03T16:31:04.220Z,18.98
2022-10-03T16:33:03.093Z,17.60
2022-10-03T16:34:54.024Z,15.88
2022-10-03T16:36:46.325Z,21.23
2022-10-03T16:40:28.783Z,19.50
2022-10-03T16:42:21.866Z,20.60
2022-10-03T16:44:21.003Z,16.90
2022-10-03T16:46:15.728Z,19.13
2022-10-03T16:48:11.464Z,13.38
2022-10-03T16:50:04.583Z,18.35
2022-10-03T16:52:00.979Z,16.48
2022-10-03T16:53:53.521Z,19.45
2022-10-03T16:57:43.680Z,20.08
2022-10-03T16:59:37.046Z,19.80
2022-10-03T17:01:31.807Z,31.92
2022-10-03T17:03:24.740Z,14.43
2022-10-03T17:07:11.804Z,14.93
2022-10-03T17:09:04.347Z,15.63
2022-10-03T17:12:47.747Z,15.93
2022-10-03T17:14:41.895Z,23.75
2022-10-03T17:16:37.718Z,20.73
2022-10-03T17:18:30.748Z,15.45
2022-10-03T17:20:33.915Z,16.55
2022-10-03T17:22:29.991Z,14.52
2022-10-03T17:24:35.448Z,22.15
2022-10-03T17:26:28.435Z,16.70
2022-10-03T17:28:30.626Z,15.73
2022-10-03T17:30:28.983Z,19.17
2022-10-03T17:32:24.105Z,22.25
2022-10-03T17:34:18.798Z,16.45
2022-10-03T17:36:38.392Z,29.00
2022-10-03T17:38:49.471Z,19.60
2022-10-03T17:40:50.228Z,22.63
2022-10-03T17:42:43.050Z,21.45
2022-10-03T17:44:37.131Z,22.35
2022-10-03T17:46:37.128Z,21.88
2022-10-03T17:48:35.572Z,25.50
2022-10-03T17:50:29.564Z,26.88
2022-10-03T17:52:21.506Z,19.80
2022-10-03T17:54:14.831Z,23.20
2022-10-03T17:56:10.223Z,22.25
2022-10-03T17:58:04.816Z,23.65
2022-10-03T17:59:59.275Z,23.60
2022-10-03T18:01:53.395Z,24.42
2022-10-03T18:03:47.646Z,31.92
2022-10-03T18:05:40.970Z,24.00
2022-10-03T18:07:31.704Z,23.92
2022-10-03T18:09:32.288Z,26.55
2022-10-03T18:11:25.156Z,27.27
2022-10-03T18:13:17.136Z,32.33
2022-10-03T18:15:34.338Z,26.52
2022-10-03T18:17:32.306Z,24.33
2022-10-03T18:19:33.254Z,25.23
2022-10-03T18:21:35.406Z,23.17
2022-10-03T18:23:53.610Z,23.23
2022-10-03T18:26:18.171Z,24.33
2022-10-03T18:28:13.187Z,28.60
2022-10-03T18:30:05.789Z,23.45
2022-10-03T18:31:57.795Z,29.75
2022-10-03T18:33:55.192Z,21.67
2022-10-03T18:35:47.206Z,25.80
2022-10-03T18:38:05.655Z,29.13
2022-10-03T18:39:58.616Z,20.92
2022-10-03T18:41:50.949Z,29.05
2022-10-03T18:45:42.520Z,21.08
2022-10-03T18:47:35.491Z,20.48
2022-10-03T18:49:34.109Z,28.52
2022-10-03T18:51:32.403Z,20.10
2022-10-03T18:53:28.761Z,20.60
2022-10-03T18:55:23.030Z,27.02
2022-10-03T18:57:19.125Z,25.02
2022-10-03T18:59:20.599Z,25.00
2022-10-03T19:01:17.463Z,20.98
2022-10-03T19:03:12.401Z,24.40
2022-10-03T19:05:10.166Z,25.58
2022-10-03T19:07:01.776Z,20.73
2022-10-03T19:08:55.803Z,23.85
2022-10-03T19:10:48.672Z,26.15
2022-10-03T19:12:42.392Z,25.02
2022-10-03T19:14:36.398Z,24.73
2022-10-03T19:16:55.941Z,24.30
2022-10-03T19:18:56.231Z,26.38
2022-10-03T19:20:50.646Z,24.85
2022-10-03T19:22:43.620Z,28.00
2022-10-03T19:24:57.176Z,26.60
2022-10-03T19:26:47.046Z,29.20
2022-10-03T19:30:29.770Z,27.25
2022-10-03T19:34:17.928Z,25.85
2022-10-03T19:36:15.985Z,21.02
2022-10-03T19:38:14.956Z,24.40
2022-10-03T19:40:13.257Z,17.52
2022-10-03T19:42:22.234Z,25.33
2022-10-03T19:44:15.966Z,19.73
2022-10-03T19:46:19.195Z,20.80
2022-10-03T19:48:11.233Z,23.85
2022-10-03T19:50:05.592Z,24.00
2022-10-03T19:52:15.951Z,21.10
2022-10-03T19:54:12.768Z,20.30
2022-10-03T19:56:03.960Z,22.27
2022-10-03T19:57:55.673Z,27.73
2022-10-03T19:59:47.067Z,33.40
2022-10-03T20:01:43.100Z,27.07
2022-10-03T20:03:38.553Z,31.35
2022-10-03T20:05:35.497Z,39.85
2022-10-03T20:07:43.639Z,33.40
2022-10-03T20:09:34.206Z,29.88
2022-10-03T20:11:34.047Z,30.90
2022-10-03T20:13:24.476Z,59.72
2022-10-03T20:15:19.846Z,63.67
2022-10-03T20:17:14.945Z,44.58
2022-10-03T20:19:08.595Z,48.58
2022-10-03T20:21:00.420Z,39.75
2022-10-03T20:22:53.733Z,35.75
2022-10-03T20:24:45.584Z,29.58
2022-10-03T20:26:38.588Z,23.92
2022-10-03T20:28:44.524Z,27.38
2022-10-03T20:30:40.360Z,22.02
2022-10-03T20:32:32.073Z,30.95
2022-10-03T20:34:23.866Z,19.83
2022-10-03T20:36:19.725Z,26.20
2022-10-03T20:38:19.919Z,30.92
2022-10-03T20:40:22.199Z,31.45
2022-10-03T20:44:12.629Z,24.45
2022-10-03T20:46:14.005Z,16.67
2022-10-03T20:48:07.274Z,22.90
2022-10-03T20:50:00.538Z,26.95
2022-10-03T20:51:59.234Z,19.63
2022-10-03T20:53:51.969Z,24.20
2022-10-03T20:55:47.441Z,19.38
2022-10-03T20:57:44.576Z,20.80
2022-10-03T20:59:44.140Z,23.27
2022-10-03T21:01:35.657Z,20.38
2022-10-03T21:03:31.537Z,17.13
2022-10-03T21:05:24.058Z,20.13
2022-10-03T21:07:25.136Z,23.15
2022-10-03T21:09:20.442Z,18.40
2022-10-03T21:11:19.112Z,21.65
2022-10-03T21:13:15.440Z,17.88
2022-10-03T21:15:12.380Z,24.92
2022-10-03T21:17:03.438Z,22.98
2022-10-03T21:18:57.863Z,14.25
2022-10-03T21:20:56.090Z,24.95
2022-10-03T21:22:50.117Z,19.45
2022-10-03T21:24:47.022Z,17.52
2022-10-03T21:26:43.012Z,17.90
2022-10-03T21:28:35.481Z,20.98
2022-10-03T21:32:48.968Z,23.42
2022-10-03T21:34:46.072Z,17.80
2022-10-03T21:36:45.579Z,17.70
2022-10-03T21:38:37.892Z,24.52
2022-10-03T21:41:09.823Z,19.90
2022-10-03T21:43:06.219Z,25.92
2022-10-03T21:45:19.426Z,30.95
2022-10-03T21:49:26.635Z,19.35
2022-10-03T21:51:25.224Z,20.08
2022-10-03T21:53:21.863Z,21.00
2022-10-03T21:55:50.657Z,22.30
2022-10-03T21:57:48.717Z,22.35
2022-10-03T21:59:52.893Z,21.67
2022-10-03T22:01:48.186Z,20.15
2022-10-03T22:03:45.657Z,21.80
2022-10-03T22:05:43.150Z,26.58
2022-10-03T22:07:37.053Z,16.55
2022-10-03T22:09:28.036Z,24.75
2022-10-03T22:11:25.217Z,18.42
2022-10-03T22:13:18.746Z,17.58
2022-10-03T22:15:12.290Z,22.65
2022-10-03T22:17:08.391Z,21.92
2022-10-03T22:19:11.644Z,15.90
2022-10-03T22:21:09.077Z,24.13
2022-10-03T22:23:19.282Z,25.33
2022-10-03T22:25:20.873Z,24.65
2022-10-03T22:27:16.537Z,25.00
2022-10-03T22:29:12.736Z,27.38
2022-10-03T22:31:13.393Z,22.52
2022-10-03T22:33:10.847Z,20.92
2022-10-03T22:35:11.461Z,18.60
2022-10-03T22:37:02.390Z,22.33
2022-10-03T22:38:53.022Z,19.38
2022-10-03T22:40:44.118Z,24.48
2022-10-03T22:42:46.946Z,18.92
2022-10-03T22:44:43.444Z,19.85
2022-10-03T22:46:34.958Z,16.27
2022-10-03T22:48:29.102Z,19.80
2022-10-03T22:50:21.405Z,17.55
2022-10-03T22:52:18.219Z,26.33
2022-10-03T22:54:10.775Z,18.23
2022-10-03T22:56:23.723Z,24.33
2022-10-03T22:58:14.392Z,15.93
2022-10-03T23:00:10.153Z,17.75
2022-10-03T23:02:04.011Z,21.90
2022-10-03T23:03:55.366Z,18.85
2022-10-03T23:06:05.999Z,18.73
2022-10-03T23:08:04.615Z,24.95
2022-10-03T23:10:15.203Z,22.63
2022-10-03T23:12:06.621Z,20.35
2022-10-03T23:13:59.240Z,23.25
2022-10-03T23:19:52.461Z,23.70
2022-10-03T23:21:45.259Z,18.48
2022-10-03T23:23:48.461Z,18.65
2022-10-03T23:25:46.291Z,21.42
2022-10-03T23:27:55.435Z,19.20
2022-10-03T23:29:47.216Z,18.13
2022-10-03T23:31:56.153Z,21.33
2022-10-03T23:33:49.070Z,21.42
2022-10-03T23:35:41.922Z,20.73
2022-10-03T23:39:32.128Z,22.90
2022-10-03T23:41:41.483Z,22.70
2022-10-03T23:43:37.096Z,22.17
2022-10-03T23:45:29.639Z,24.58
2022-10-03T23:47:27.410Z,17.65
2022-10-03T23:49:19.012Z,15.38
2022-10-03T23:51:12.773Z,22.67
2022-10-03T23:53:04.497Z,17.45
2022-10-03T23:54:58.237Z,21.03
2022-10-03T23:56:50.017Z,19.95
2022-10-03T23:58:40.554Z,23.40
